Time;durP1;ratioP1;P1;durP2;ratioP2;P2;SDS_P1;SDS_P2;PMS_P1;PMS_P2;Temp;Humidity;BMP_temperature;BMP_pressure;BME280_temperature;BME280_humidity;BME280_pressure;Samples;Min_cycle;Max_cycle;Signal;HPM_P1;HPM_P2
2021/10/21 00:01:39;;;;;;;17.35;9.02;;;;;;;;;;5065778;28;20177;-77
2021/10/21 00:04:04;;;;;;;15.13;9.13;;;;;;;;;;5064858;28;20239;-77
2021/10/21 00:06:30;;;;;;;14.25;8.10;;;;;;;;;;5068894;28;20200;-77
2021/10/21 00:08:55;;;;;;;11.52;7.93;;;;;;;;;;5052269;28;20566;-76
2021/10/21 00:11:20;;;;;;;19.35;7.80;;;;;;;;;;5047245;28;20170;-76
2021/10/21 00:13:45;;;;;;;9.85;7.25;;;;;;;;;;5066807;28;20181;-77
2021/10/21 00:16:10;;;;;;;12.20;6.50;;;;;;;;;;5061097;28;20208;-76
2021/10/21 00:18:36;;;;;;;8.43;5.80;;;;;;;;;;5071483;28;20315;-76
2021/10/21 00:21:01;;;;;;;8.70;5.40;;;;;;;;;;5066319;28;20181;-76
2021/10/21 00:23:26;;;;;;;8.70;5.05;;;;;;;;;;5069667;28;20186;-76
2021/10/21 00:25:52;;;;;;;10.70;5.40;;;;;;;;;;5055861;28;20250;-77
2021/10/21 00:28:17;;;;;;;7.65;4.25;;;;;;;;;;5067725;28;20288;-76
2021/10/21 00:30:42;;;;;;;10.10;5.57;;;;;;;;;;5056966;28;20230;-76
2021/10/21 00:33:07;;;;;;;5.93;3.63;;;;;;;;;;5065100;28;20172;-75
2021/10/21 00:35:33;;;;;;;8.32;4.35;;;;;;;;;;5068256;28;20196;-75
2021/10/21 00:37:58;;;;;;;6.43;4.25;;;;;;;;;;5046303;28;20421;-75
2021/10/21 00:40:23;;;;;;;7.00;3.80;;;;;;;;;;5064406;28;20188;-76
2021/10/21 00:42:49;;;;;;;7.35;4.00;;;;;;;;;;5064497;28;20188;-75
2021/10/21 00:45:14;;;;;;;8.27;4.40;;;;;;;;;;5064619;28;20353;-76
2021/10/21 00:47:39;;;;;;;9.63;4.32;;;;;;;;;;5060515;28;20742;-75
2021/10/21 00:50:05;;;;;;;5.35;3.85;;;;;;;;;;5059672;28;20173;-76
2021/10/21 00:52:31;;;;;;;6.93;3.70;;;;;;;;;;5059647;28;20185;-76
2021/10/21 00:54:57;;;;;;;4.28;1.52;;;;;;;;;;5062390;28;20252;-77
2021/10/21 00:57:22;;;;;;;3.30;1.10;;;;;;;;;;5052141;28;20184;-75
2021/10/21 00:59:47;;;;;;;2.65;0.98;;;;;;;;;;5047214;28;20183;-75
2021/10/21 01:02:12;;;;;;;3.47;1.38;;;;;;;;;;5063029;28;20181;-76
2021/10/21 01:04:38;;;;;;;4.72;1.00;;;;;;;;;;5066489;28;20213;-75
2021/10/21 01:07:04;;;;;;;4.10;1.87;;;;;;;;;;5056460;28;20791;-75
2021/10/21 01:09:30;;;;;;;2.90;1.27;;;;;;;;;;5071101;28;20216;-75
2021/10/21 01:11:55;;;;;;;4.60;1.57;;;;;;;;;;5060784;28;20600;-75
2021/10/21 01:14:20;;;;;;;3.37;0.93;;;;;;;;;;5051840;28;20192;-76
2021/10/21 01:16:46;;;;;;;4.10;0.87;;;;;;;;;;5061665;28;20852;-75
2021/10/21 01:19:15;;;;;;;6.07;1.03;;;;;;;;;;5059255;28;20234;-75
2021/10/21 01:21:42;;;;;;;4.43;1.57;;;;;;;;;;5056608;28;21026;-75
2021/10/21 01:24:07;;;;;;;5.00;1.65;;;;;;;;;;5066783;28;20627;-75
2021/10/21 01:26:32;;;;;;;4.17;1.00;;;;;;;;;;5040702;28;20285;-75
2021/10/21 01:28:57;;;;;;;3.88;1.45;;;;;;;;;;5049683;28;20173;-75
2021/10/21 01:31:23;;;;;;;4.27;1.10;;;;;;;;;;5062182;28;20549;-75
2021/10/21 01:33:48;;;;;;;5.90;1.20;;;;;;;;;;5047872;28;20165;-75
2021/10/21 01:36:13;;;;;;;3.90;0.90;;;;;;;;;;5062845;28;20323;-75
2021/10/21 01:38:38;;;;;;;4.33;1.10;;;;;;;;;;5045975;28;20192;-75
2021/10/21 01:41:03;;;;;;;3.20;1.00;;;;;;;;;;5065015;28;20187;-76
2021/10/21 01:43:29;;;;;;;4.57;0.97;;;;;;;;;;5056523;28;20204;-75
2021/10/21 01:45:54;;;;;;;5.00;1.03;;;;;;;;;;5065816;28;20200;-75
2021/10/21 01:48:19;;;;;;;5.27;1.37;;;;;;;;;;5044297;28;20220;-75
2021/10/21 01:50:44;;;;;;;5.77;0.70;;;;;;;;;;5061548;28;20244;-75
2021/10/21 01:53:11;;;;;;;4.40;0.80;;;;;;;;;;5060227;28;20184;-76
2021/10/21 01:55:36;;;;;;;2.90;0.70;;;;;;;;;;5066139;28;20700;-75
2021/10/21 01:58:02;;;;;;;1.87;0.60;;;;;;;;;;5065596;28;20185;-75
2021/10/21 02:00:28;;;;;;;2.43;0.60;;;;;;;;;;5062419;28;20351;-75
2021/10/21 02:02:53;;;;;;;2.30;0.70;;;;;;;;;;5062977;28;20197;-75
2021/10/21 02:05:19;;;;;;;5.63;1.27;;;;;;;;;;5055636;28;20297;-74
2021/10/21 02:07:44;;;;;;;1.37;0.60;;;;;;;;;;5058793;28;20755;-75
2021/10/21 02:10:11;;;;;;;3.83;0.90;;;;;;;;;;5058182;28;20172;-76
2021/10/21 02:12:36;;;;;;;0.93;0.53;;;;;;;;;;5067918;28;20186;-75
2021/10/21 02:15:01;;;;;;;4.50;0.60;;;;;;;;;;5069927;28;20201;-75
2021/10/21 02:17:27;;;;;;;3.20;0.60;;;;;;;;;;5067467;28;20192;-74
2021/10/21 02:19:52;;;;;;;3.03;0.67;;;;;;;;;;5057110;28;22306;-75
2021/10/21 02:22:18;;;;;;;3.90;1.00;;;;;;;;;;5049371;28;20222;-74
2021/10/21 02:24:43;;;;;;;3.70;0.80;;;;;;;;;;5048803;28;20288;-74
2021/10/21 02:27:08;;;;;;;3.13;0.57;;;;;;;;;;5055293;28;20225;-74
2021/10/21 02:29:33;;;;;;;5.30;1.50;;;;;;;;;;5041133;28;20169;-75
2021/10/21 02:31:59;;;;;;;2.03;0.70;;;;;;;;;;5054178;28;20269;-74
2021/10/21 02:34:24;;;;;;;5.20;0.90;;;;;;;;;;5062073;28;20197;-75
2021/10/21 02:36:49;;;;;;;3.47;0.63;;;;;;;;;;5066498;28;20200;-74
2021/10/21 02:39:15;;;;;;;5.47;1.07;;;;;;;;;;5064333;28;20188;-75
2021/10/21 02:41:40;;;;;;;4.07;1.17;;;;;;;;;;5051199;28;20387;-75
2021/10/21 02:44:05;;;;;;;5.23;1.37;;;;;;;;;;5065355;28;20185;-75
2021/10/21 02:46:30;;;;;;;2.50;0.90;;;;;;;;;;5059218;28;20190;-75
2021/10/21 02:48:55;;;;;;;4.43;0.93;;;;;;;;;;5060229;28;20240;-75
2021/10/21 02:51:21;;;;;;;3.27;0.90;;;;;;;;;;5064058;28;20177;-75
2021/10/21 02:53:48;;;;;;;5.57;1.00;;;;;;;;;;5066486;28;20180;-75
2021/10/21 02:56:13;;;;;;;4.57;1.03;;;;;;;;;;5058319;28;20271;-75
2021/10/21 02:58:38;;;;;;;2.80;1.37;;;;;;;;;;5063967;28;20229;-75
2021/10/21 03:01:03;;;;;;;6.13;1.00;;;;;;;;;;5071329;28;20173;-75
2021/10/21 03:03:29;;;;;;;4.70;1.10;;;;;;;;;;5070758;28;20453;-75
2021/10/21 03:05:54;;;;;;;4.47;1.60;;;;;;;;;;5073376;28;20215;-75
2021/10/21 03:08:19;;;;;;;4.73;0.87;;;;;;;;;;5068177;28;20219;-75
2021/10/21 03:10:44;;;;;;;3.63;1.07;;;;;;;;;;5073446;28;20173;-76
2021/10/21 03:13:09;;;;;;;4.27;1.27;;;;;;;;;;5053357;28;20173;-74
2021/10/21 03:15:34;;;;;;;3.93;1.23;;;;;;;;;;5065715;28;20194;-74
2021/10/21 03:18:00;;;;;;;8.87;1.57;;;;;;;;;;5065531;28;20704;-74
2021/10/21 03:20:25;;;;;;;3.90;0.87;;;;;;;;;;5071648;28;20216;-74
2021/10/21 03:22:50;;;;;;;6.00;2.27;;;;;;;;;;5072291;28;20181;-75
2021/10/21 03:25:16;;;;;;;3.23;0.97;;;;;;;;;;5070547;28;20224;-75
2021/10/21 03:27:41;;;;;;;6.00;1.10;;;;;;;;;;5064046;28;20201;-75
2021/10/21 03:30:07;;;;;;;6.93;1.20;;;;;;;;;;5070564;28;20170;-75
2021/10/21 03:32:32;;;;;;;7.33;1.43;;;;;;;;;;5060342;28;20533;-74
2021/10/21 03:34:58;;;;;;;7.13;1.03;;;;;;;;;;5068650;28;20200;-75
2021/10/21 03:37:23;;;;;;;4.17;0.90;;;;;;;;;;5072135;28;20475;-75
2021/10/21 03:39:51;;;;;;;8.13;1.20;;;;;;;;;;5052946;28;20263;-74
2021/10/21 03:42:17;;;;;;;7.10;1.20;;;;;;;;;;5072187;28;20211;-75
2021/10/21 03:44:42;;;;;;;3.00;1.10;;;;;;;;;;5062553;28;20233;-75
2021/10/21 03:47:09;;;;;;;5.70;1.17;;;;;;;;;;5065765;28;20203;-74
2021/10/21 03:49:34;;;;;;;3.13;1.50;;;;;;;;;;5046244;28;20185;-75
2021/10/21 03:51:59;;;;;;;7.27;2.37;;;;;;;;;;5051294;28;20192;-74
2021/10/21 03:54:25;;;;;;;4.47;1.40;;;;;;;;;;5057912;28;20189;-74
2021/10/21 03:56:50;;;;;;;3.57;1.43;;;;;;;;;;5062642;28;20181;-74
2021/10/21 03:59:15;;;;;;;7.47;1.67;;;;;;;;;;5066280;28;20275;-74
2021/10/21 04:01:40;;;;;;;3.27;1.30;;;;;;;;;;5063689;28;20196;-74
2021/10/21 04:04:06;;;;;;;8.13;3.13;;;;;;;;;;5064013;28;20173;-75
2021/10/21 04:06:31;;;;;;;8.53;1.80;;;;;;;;;;5067109;28;20250;-75
2021/10/21 04:08:56;;;;;;;5.93;2.17;;;;;;;;;;5066544;28;20569;-75
2021/10/21 04:11:21;;;;;;;6.53;1.48;;;;;;;;;;5061183;28;20169;-75
2021/10/21 04:13:47;;;;;;;7.10;2.05;;;;;;;;;;5068906;28;20489;-74
2021/10/21 04:16:12;;;;;;;3.65;1.80;;;;;;;;;;5066584;28;20246;-75
2021/10/21 04:18:37;;;;;;;6.57;1.70;;;;;;;;;;5062757;28;20223;-74
2021/10/21 04:21:02;;;;;;;3.30;1.33;;;;;;;;;;5069470;28;20208;-74
2021/10/21 04:23:27;;;;;;;3.67;1.60;;;;;;;;;;5069295;28;20189;-74
2021/10/21 04:25:52;;;;;;;4.83;1.40;;;;;;;;;;5063141;28;20201;-74
2021/10/21 04:28:18;;;;;;;3.47;1.45;;;;;;;;;;5069951;28;20205;-74
2021/10/21 04:30:43;;;;;;;3.23;1.37;;;;;;;;;;5050607;28;20230;-75
2021/10/21 04:33:08;;;;;;;5.03;1.70;;;;;;;;;;5066760;28;20658;-75
2021/10/21 04:35:33;;;;;;;6.13;1.57;;;;;;;;;;5066483;28;20192;-75
2021/10/21 04:37:58;;;;;;;3.23;1.70;;;;;;;;;;5068408;28;20210;-75
2021/10/21 04:40:24;;;;;;;6.70;1.63;;;;;;;;;;5063964;28;20185;-75
2021/10/21 04:42:49;;;;;;;6.80;2.97;;;;;;;;;;5062936;28;20234;-75
2021/10/21 04:45:14;;;;;;;5.87;1.90;;;;;;;;;;5063796;28;20239;-74
2021/10/21 04:47:39;;;;;;;8.43;2.33;;;;;;;;;;5067290;28;20204;-74
2021/10/21 04:50:05;;;;;;;5.53;1.33;;;;;;;;;;5062829;28;20252;-75
2021/10/21 04:52:30;;;;;;;4.43;1.50;;;;;;;;;;5070962;28;20176;-74
2021/10/21 04:54:55;;;;;;;2.90;0.97;;;;;;;;;;5064734;28;20553;-75
2021/10/21 04:57:21;;;;;;;1.07;0.70;;;;;;;;;;5060923;28;20193;-74
2021/10/21 04:59:46;;;;;;;3.20;1.00;;;;;;;;;;5060191;28;20185;-75
2021/10/21 05:02:11;;;;;;;3.33;1.10;;;;;;;;;;5062808;28;20636;-76
2021/10/21 05:04:36;;;;;;;4.00;0.90;;;;;;;;;;5056446;28;20214;-75
2021/10/21 05:07:02;;;;;;;3.67;0.40;;;;;;;;;;5061532;28;20201;-76
2021/10/21 05:09:27;;;;;;;2.83;0.57;;;;;;;;;;5059783;28;20173;-75
2021/10/21 05:11:52;;;;;;;4.70;1.60;;;;;;;;;;5048125;28;20247;-75
2021/10/21 05:14:17;;;;;;;3.40;0.60;;;;;;;;;;5046826;28;20199;-74
2021/10/21 05:16:42;;;;;;;2.40;0.70;;;;;;;;;;5068471;28;20177;-76
2021/10/21 05:19:08;;;;;;;3.97;1.30;;;;;;;;;;5066805;28;20187;-74
2021/10/21 05:21:33;;;;;;;3.77;0.63;;;;;;;;;;5065917;28;20200;-74
2021/10/21 05:23:58;;;;;;;6.23;2.60;;;;;;;;;;5070185;28;20176;-75
2021/10/21 05:26:23;;;;;;;5.73;0.73;;;;;;;;;;5062496;28;20239;-75
2021/10/21 05:28:48;;;;;;;4.20;0.80;;;;;;;;;;5067576;28;20219;-75
2021/10/21 05:31:13;;;;;;;6.40;1.03;;;;;;;;;;5066676;28;20657;-75
2021/10/21 05:33:39;;;;;;;5.10;1.33;;;;;;;;;;5046427;28;20177;-75
2021/10/21 05:36:04;;;;;;;6.00;1.30;;;;;;;;;;5066402;28;20692;-76
2021/10/21 05:38:30;;;;;;;8.40;1.23;;;;;;;;;;5062098;28;20185;-75
2021/10/21 05:40:55;;;;;;;7.57;1.97;;;;;;;;;;5065889;28;20230;-76
2021/10/21 05:43:22;;;;;;;12.57;1.83;;;;;;;;;;5065960;28;21429;-75
2021/10/21 05:45:47;;;;;;;12.50;2.90;;;;;;;;;;5037679;28;20228;-76
2021/10/21 05:48:13;;;;;;;9.50;2.00;;;;;;;;;;5064464;28;20197;-76
2021/10/21 05:50:38;;;;;;;8.40;2.23;;;;;;;;;;5061859;28;20173;-75
2021/10/21 05:53:03;;;;;;;16.00;1.70;;;;;;;;;;5058708;28;20185;-76
2021/10/21 05:55:28;;;;;;;4.00;1.20;;;;;;;;;;5047992;28;20582;-75
2021/10/21 05:57:54;;;;;;;13.67;2.17;;;;;;;;;;5067774;28;20291;-75
2021/10/21 06:00:19;;;;;;;6.13;1.40;;;;;;;;;;5044332;28;20314;-75
2021/10/21 06:02:44;;;;;;;10.17;1.90;;;;;;;;;;5069411;28;20550;-76
2021/10/21 06:05:09;;;;;;;13.00;2.00;;;;;;;;;;5051809;28;20208;-76
2021/10/21 06:07:34;;;;;;;9.97;2.60;;;;;;;;;;5063219;28;20224;-75
2021/10/21 06:10:00;;;;;;;13.37;2.10;;;;;;;;;;5043867;28;20183;-76
2021/10/21 06:12:25;;;;;;;11.27;2.20;;;;;;;;;;5063041;28;20558;-75
2021/10/21 06:14:51;;;;;;;9.80;1.67;;;;;;;;;;5067115;28;20193;-75
2021/10/21 06:17:16;;;;;;;6.77;2.13;;;;;;;;;;5062899;28;20181;-75
2021/10/21 06:19:41;;;;;;;7.37;1.50;;;;;;;;;;5062023;28;20187;-75
2021/10/21 06:22:12;;;;;;;6.27;1.80;;;;;;;;;;5054913;28;20267;-75
2021/10/21 06:24:37;;;;;;;10.67;2.60;;;;;;;;;;5045634;28;20212;-75
2021/10/21 06:27:02;;;;;;;10.23;1.83;;;;;;;;;;5063920;28;20197;-75
2021/10/21 06:29:28;;;;;;;12.40;2.43;;;;;;;;;;5057472;28;20189;-74
2021/10/21 06:31:53;;;;;;;9.30;2.57;;;;;;;;;;5057904;28;20670;-75
2021/10/21 06:34:19;;;;;;;9.37;2.00;;;;;;;;;;5061351;28;20283;-75
2021/10/21 06:36:44;;;;;;;11.63;2.70;;;;;;;;;;5062845;28;20223;-74
2021/10/21 06:39:10;;;;;;;12.73;2.30;;;;;;;;;;5056838;28;20207;-75
2021/10/21 06:41:35;;;;;;;8.80;2.40;;;;;;;;;;5059676;28;20663;-74
2021/10/21 06:44:00;;;;;;;10.30;2.27;;;;;;;;;;5066461;28;20234;-74
2021/10/21 06:46:27;;;;;;;11.27;2.40;;;;;;;;;;5041500;28;20181;-74
2021/10/21 06:48:52;;;;;;;16.67;2.90;;;;;;;;;;5066336;28;20215;-74
2021/10/21 06:51:17;;;;;;;8.17;1.93;;;;;;;;;;5060673;28;20173;-75
2021/10/21 06:53:43;;;;;;;13.70;3.20;;;;;;;;;;5061612;28;20177;-75
2021/10/21 06:56:08;;;;;;;11.87;2.23;;;;;;;;;;5057927;28;20188;-75
2021/10/21 06:58:33;;;;;;;7.03;1.60;;;;;;;;;;5043224;28;20657;-75
2021/10/21 07:00:59;;;;;;;6.70;1.53;;;;;;;;;;5062594;28;20259;-75
2021/10/21 07:03:24;;;;;;;10.23;2.07;;;;;;;;;;5065472;28;20177;-75
2021/10/21 07:05:52;;;;;;;5.00;1.77;;;;;;;;;;5059897;28;20231;-74
2021/10/21 07:08:18;;;;;;;11.40;2.67;;;;;;;;;;5053921;28;20202;-74
2021/10/21 07:10:43;;;;;;;11.43;2.50;;;;;;;;;;5059977;28;20235;-76
2021/10/21 07:13:09;;;;;;;16.00;2.77;;;;;;;;;;5060408;28;20177;-75
2021/10/21 07:15:35;;;;;;;11.23;2.90;;;;;;;;;;5047677;28;20581;-75
2021/10/21 07:18:00;;;;;;;12.63;2.30;;;;;;;;;;5050129;28;20228;-75
2021/10/21 07:20:26;;;;;;;15.10;3.47;;;;;;;;;;5064919;28;20176;-75
2021/10/21 07:22:51;;;;;;;11.73;2.87;;;;;;;;;;5045643;28;20642;-75
2021/10/21 07:25:16;;;;;;;6.90;2.47;;;;;;;;;;5065435;28;20652;-75
2021/10/21 07:27:42;;;;;;;12.73;2.93;;;;;;;;;;5067846;28;20209;-75
2021/10/21 07:30:08;;;;;;;11.33;3.07;;;;;;;;;;5058878;28;20204;-75
2021/10/21 07:32:33;;;;;;;14.03;5.90;;;;;;;;;;5052438;28;20185;-75
2021/10/21 07:34:58;;;;;;;10.93;2.30;;;;;;;;;;5043360;28;20208;-74
2021/10/21 07:37:24;;;;;;;6.00;1.70;;;;;;;;;;5064004;28;20180;-74
2021/10/21 07:39:49;;;;;;;11.83;2.93;;;;;;;;;;5066876;28;20226;-74
2021/10/21 07:42:14;;;;;;;7.20;2.40;;;;;;;;;;5044167;28;20563;-74
2021/10/21 07:44:40;;;;;;;7.27;1.97;;;;;;;;;;5056402;28;20200;-73
2021/10/21 07:47:05;;;;;;;10.47;1.97;;;;;;;;;;5064184;28;20262;-74
2021/10/21 07:49:31;;;;;;;5.00;1.53;;;;;;;;;;5056841;28;20549;-74
2021/10/21 07:51:56;;;;;;;13.03;2.30;;;;;;;;;;5069515;28;20165;-74
2021/10/21 07:54:27;;;;;;;7.83;2.37;;;;;;;;;;5071314;28;20199;-74
2021/10/21 07:56:53;;;;;;;10.03;1.63;;;;;;;;;;5060246;28;20659;-75
2021/10/21 07:59:18;;;;;;;3.90;1.67;;;;;;;;;;5050085;28;20248;-75
2021/10/21 08:01:43;;;;;;;7.77;1.60;;;;;;;;;;5064179;28;20166;-75
2021/10/21 08:04:13;;;;;;;6.28;1.67;;;;;;;;;;5049539;28;20212;-74
2021/10/21 08:06:38;;;;;;;8.55;1.88;;;;;;;;;;5090267;23;20257;-71
2021/10/21 08:09:04;;;;;;;8.63;1.88;;;;;;;;;;5060610;28;20200;-72
2021/10/21 08:11:29;;;;;;;5.97;1.48;;;;;;;;;;5064377;28;20630;-72
2021/10/21 08:13:54;;;;;;;13.88;2.65;;;;;;;;;;5072017;28;20177;-72
2021/10/21 08:16:20;;;;;;;5.63;1.50;;;;;;;;;;5072905;28;20189;-72
2021/10/21 08:18:45;;;;;;;7.17;1.60;;;;;;;;;;5058776;28;20807;-72
2021/10/21 08:21:10;;;;;;;9.98;1.75;;;;;;;;;;5050752;28;20184;-71
2021/10/21 08:23:35;;;;;;;7.40;1.47;;;;;;;;;;5052006;28;20598;-73
2021/10/21 08:26:00;;;;;;;6.40;2.00;;;;;;;;;;5047727;28;20208;-74
2021/10/21 08:28:25;;;;;;;7.17;1.40;;;;;;;;;;5051581;28;20219;-73
2021/10/21 08:30:51;;;;;;;4.07;1.10;;;;;;;;;;5048515;28;20169;-72
2021/10/21 08:33:17;;;;;;;5.90;1.33;;;;;;;;;;5048909;28;20711;-72
2021/10/21 08:35:42;;;;;;;3.20;0.90;;;;;;;;;;5052150;28;20291;-73
2021/10/21 08:38:07;;;;;;;5.20;1.13;;;;;;;;;;5050340;28;20230;-73
2021/10/21 08:40:33;;;;;;;6.47;1.70;;;;;;;;;;5051270;28;20571;-73
2021/10/21 08:43:02;;;;;;;3.90;0.93;;;;;;;;;;5049099;28;20224;-73
2021/10/21 08:45:28;;;;;;;4.33;1.07;;;;;;;;;;5051519;28;20201;-73
2021/10/21 08:47:56;;;;;;;8.83;2.13;;;;;;;;;;5050786;28;20196;-72
2021/10/21 08:50:21;;;;;;;6.53;1.03;;;;;;;;;;5050129;28;20201;-73
2021/10/21 08:52:46;;;;;;;6.60;1.40;;;;;;;;;;5047935;28;20177;-74
2021/10/21 08:55:13;;;;;;;8.13;1.33;;;;;;;;;;5050090;28;20197;-73
2021/10/21 08:57:38;;;;;;;9.23;2.27;;;;;;;;;;5050985;28;20654;-74
2021/10/21 09:00:04;;;;;;;11.13;2.67;;;;;;;;;;5048375;28;20195;-74
2021/10/21 09:02:40;;;;;;;9.73;2.00;;;;;;;;;;5047964;28;20203;-74
2021/10/21 09:05:19;;;;;;;4.90;1.30;;;;;;;;;;5049014;28;20264;-74
2021/10/21 09:07:57;;;;;;;4.30;1.37;;;;;;;;;;5050162;28;20259;-74
2021/10/21 09:10:23;;;;;;;4.43;1.17;;;;;;;;;;5048888;28;20294;-74
2021/10/21 09:12:49;;;;;;;8.93;1.57;;;;;;;;;;5050981;28;20956;-74
2021/10/21 09:15:18;;;;;;;5.57;1.30;;;;;;;;;;5046400;28;20249;-74
2021/10/21 09:17:44;;;;;;;6.93;1.53;;;;;;;;;;5052846;28;20181;-73
2021/10/21 09:20:23;;;;;;;4.27;1.30;;;;;;;;;;5052051;28;20184;-74
2021/10/21 09:22:56;;;;;;;7.03;1.37;;;;;;;;;;5052289;28;20212;-74
2021/10/21 09:25:27;;;;;;;7.03;2.13;;;;;;;;;;5047102;28;20970;-74
2021/10/21 09:27:55;;;;;;;5.27;1.53;;;;;;;;;;5051075;28;20683;-73
2021/10/21 09:30:25;;;;;;;6.07;1.23;;;;;;;;;;5048251;28;20673;-73
2021/10/21 09:32:50;;;;;;;10.83;2.87;;;;;;;;;;5048146;28;20186;-73
2021/10/21 09:35:19;;;;;;;7.47;1.57;;;;;;;;;;5050020;28;20210;-74
2021/10/21 09:37:46;;;;;;;6.90;1.33;;;;;;;;;;5050902;28;21799;-73
2021/10/21 09:40:16;;;;;;;9.63;1.77;;;;;;;;;;5046145;28;20172;-74
2021/10/21 09:42:44;;;;;;;6.97;1.93;;;;;;;;;;5048801;28;20534;-74
2021/10/21 09:45:19;;;;;;;8.43;1.33;;;;;;;;;;5045214;28;20205;-73
2021/10/21 09:47:46;;;;;;;7.20;2.43;;;;;;;;;;5047807;28;20196;-74
2021/10/21 09:50:39;;;;;;;5.47;1.37;;;;;;;;;;5046421;28;20323;-74
2021/10/21 09:53:21;;;;;;;7.73;1.43;;;;;;;;;;5045511;28;20276;-74
2021/10/21 09:55:47;;;;;;;9.67;1.57;;;;;;;;;;5048520;28;20201;-73
2021/10/21 09:58:13;;;;;;;8.70;1.90;;;;;;;;;;5050287;28;20777;-73
2021/10/21 10:00:39;;;;;;;15.63;2.93;;;;;;;;;;5048269;28;20185;-73
2021/10/21 10:03:11;;;;;;;8.00;1.50;;;;;;;;;;5047148;28;20192;-73
2021/10/21 10:05:40;;;;;;;6.87;1.70;;;;;;;;;;5047756;28;20216;-74
2021/10/21 10:08:08;;;;;;;6.47;2.10;;;;;;;;;;5047767;28;20208;-73
2021/10/21 10:10:34;;;;;;;7.67;2.40;;;;;;;;;;5046587;28;20188;-74
2021/10/21 10:12:59;;;;;;;5.67;1.20;;;;;;;;;;5048596;28;20226;-74
2021/10/21 10:15:25;;;;;;;7.87;1.40;;;;;;;;;;5054125;28;20193;-73
2021/10/21 10:17:50;;;;;;;4.70;1.37;;;;;;;;;;5070969;28;20357;-73
2021/10/21 10:20:22;;;;;;;4.70;1.10;;;;;;;;;;5064265;28;20215;-73
2021/10/21 10:22:48;;;;;;;4.93;0.80;;;;;;;;;;5072936;28;21804;-73
2021/10/21 10:25:17;;;;;;;6.80;1.87;;;;;;;;;;5082568;28;20193;-72
2021/10/21 10:27:59;;;;;;;4.97;1.63;;;;;;;;;;5072433;28;21397;-73
2021/10/21 10:30:39;;;;;;;2.47;0.75;;;;;;;;;;5075291;28;20173;-73
2021/10/21 10:33:04;;;;;;;3.90;1.07;;;;;;;;;;5062540;28;20176;-72
2021/10/21 10:35:33;;;;;;;5.18;0.90;;;;;;;;;;5041112;28;20298;-71
2021/10/21 10:38:05;;;;;;;3.00;1.08;;;;;;;;;;5038672;28;20946;-72
2021/10/21 10:40:34;;;;;;;5.55;1.42;;;;;;;;;;5044786;28;20563;-73
2021/10/21 10:43:00;;;;;;;3.45;0.73;;;;;;;;;;5046609;28;20667;-72
2021/10/21 10:45:37;;;;;;;8.18;1.70;;;;;;;;;;5045403;28;20836;-72
2021/10/21 10:48:02;;;;;;;5.97;1.95;;;;;;;;;;5046633;28;20231;-72
2021/10/21 10:50:29;;;;;;;6.57;0.98;;;;;;;;;;5048908;28;20321;-71
2021/10/21 10:52:56;;;;;;;4.22;1.20;;;;;;;;;;5049620;28;20198;-71
2021/10/21 10:55:22;;;;;;;3.90;0.57;;;;;;;;;;5046982;28;20217;-72
2021/10/21 10:57:48;;;;;;;3.85;0.77;;;;;;;;;;5050089;28;20650;-72
2021/10/21 11:00:37;;;;;;;3.13;0.68;;;;;;;;;;5048025;28;20185;-73
2021/10/21 11:03:02;;;;;;;3.67;0.80;;;;;;;;;;5035856;28;20687;-72
2021/10/21 11:05:43;;;;;;;3.63;0.63;;;;;;;;;;5045752;28;20220;-72
2021/10/21 11:08:09;;;;;;;4.17;0.77;;;;;;;;;;5047836;28;20209;-75
2021/10/21 11:10:35;;;;;;;4.13;0.60;;;;;;;;;;5045828;28;20648;-72
2021/10/21 11:13:00;;;;;;;5.27;1.43;;;;;;;;;;5046859;28;20707;-73
2021/10/21 11:15:28;;;;;;;4.87;0.73;;;;;;;;;;5047556;28;20519;-74
2021/10/21 11:17:54;;;;;;;5.33;1.10;;;;;;;;;;5052584;28;20182;-74
2021/10/21 11:20:28;;;;;;;5.47;1.23;;;;;;;;;;5053266;28;22117;-72
2021/10/21 11:22:58;;;;;;;6.07;1.87;;;;;;;;;;5051465;28;20195;-72
2021/10/21 11:25:30;;;;;;;10.17;1.10;;;;;;;;;;5051025;28;20201;-73
2021/10/21 11:27:56;;;;;;;5.30;1.10;;;;;;;;;;5045640;28;20220;-73
2021/10/21 11:30:25;;;;;;;4.77;1.40;;;;;;;;;;5049723;28;20219;-73
2021/10/21 11:32:54;;;;;;;5.60;1.40;;;;;;;;;;5050676;28;20635;-73
2021/10/21 11:35:21;;;;;;;4.00;1.10;;;;;;;;;;5049191;28;20216;-74
2021/10/21 11:37:48;;;;;;;4.57;1.40;;;;;;;;;;5052487;28;20682;-73
2021/10/21 11:40:24;;;;;;;6.03;1.47;;;;;;;;;;5052667;28;20184;-73
2021/10/21 11:42:53;;;;;;;20.93;2.80;;;;;;;;;;5049211;28;20172;-72
2021/10/21 11:45:19;;;;;;;9.43;2.10;;;;;;;;;;5052150;28;20205;-73
2021/10/21 11:47:44;;;;;;;5.93;1.37;;;;;;;;;;5050980;28;20250;-74
2021/10/21 11:50:10;;;;;;;9.23;1.93;;;;;;;;;;5050087;28;20180;-73
2021/10/21 11:52:42;;;;;;;6.37;1.50;;;;;;;;;;5049267;28;20658;-73
2021/10/21 11:55:18;;;;;;;7.93;1.33;;;;;;;;;;5049507;28;20192;-72
2021/10/21 11:57:43;;;;;;;4.83;1.57;;;;;;;;;;5056176;28;20654;-73
2021/10/21 12:00:22;;;;;;;4.87;1.17;;;;;;;;;;5049610;28;20185;-72
2021/10/21 12:02:51;;;;;;;6.50;1.00;;;;;;;;;;5047573;28;20185;-72
2021/10/21 12:05:16;;;;;;;4.17;0.87;;;;;;;;;;5052371;28;20220;-72
2021/10/21 12:07:42;;;;;;;4.77;1.40;;;;;;;;;;5051688;28;20205;-72
2021/10/21 12:10:07;;;;;;;4.20;0.87;;;;;;;;;;5048200;28;20271;-73
2021/10/21 12:12:36;;;;;;;5.90;0.90;;;;;;;;;;5049855;28;20181;-74
2021/10/21 12:15:02;;;;;;;2.37;1.30;;;;;;;;;;5050893;28;20173;-73
2021/10/21 12:17:27;;;;;;;7.73;2.03;;;;;;;;;;5053757;28;20194;-74
2021/10/21 12:19:52;;;;;;;6.50;1.10;;;;;;;;;;5055237;28;20536;-72
2021/10/21 12:22:21;;;;;;;5.07;1.10;;;;;;;;;;5049154;28;20263;-73
2021/10/21 12:24:47;;;;;;;2.60;0.77;;;;;;;;;;5048570;28;20180;-72
2021/10/21 12:27:20;;;;;;;4.73;1.07;;;;;;;;;;5052997;28;20188;-72
2021/10/21 12:29:45;;;;;;;5.13;1.03;;;;;;;;;;5048070;28;20172;-73
2021/10/21 12:32:12;;;;;;;5.60;1.03;;;;;;;;;;5050413;28;20662;-73
2021/10/21 12:34:38;;;;;;;6.83;1.57;;;;;;;;;;5051064;28;20177;-73
2021/10/21 12:37:09;;;;;;;4.70;1.03;;;;;;;;;;5035053;28;21036;-74
2021/10/21 12:39:35;;;;;;;7.43;1.47;;;;;;;;;;5048398;28;20666;-73
2021/10/21 12:42:01;;;;;;;4.63;1.00;;;;;;;;;;5049029;28;20263;-74
2021/10/21 12:44:37;;;;;;;8.40;1.50;;;;;;;;;;5048930;28;20314;-74
2021/10/21 12:47:25;;;;;;;8.30;1.30;;;;;;;;;;5047568;28;20200;-74
2021/10/21 12:49:53;;;;;;;8.73;1.50;;;;;;;;;;5046666;28;20184;-73
2021/10/21 12:52:21;;;;;;;5.90;1.27;;;;;;;;;;5049324;28;20181;-74
2021/10/21 12:54:47;;;;;;;6.80;1.43;;;;;;;;;;5049326;28;20215;-74
2021/10/21 12:57:15;;;;;;;7.30;1.50;;;;;;;;;;5052091;28;20867;-73
2021/10/21 12:59:40;;;;;;;4.30;0.80;;;;;;;;;;5048862;28;20183;-74
2021/10/21 13:02:15;;;;;;;4.70;1.07;;;;;;;;;;5052770;28;20177;-73
2021/10/21 13:04:44;;;;;;;5.67;0.83;;;;;;;;;;5033977;28;20221;-73
2021/10/21 13:07:11;;;;;;;4.73;0.87;;;;;;;;;;5047707;28;20631;-73
2021/10/21 13:09:36;;;;;;;4.67;0.73;;;;;;;;;;5051374;28;20235;-73
2021/10/21 13:12:02;;;;;;;6.40;1.13;;;;;;;;;;5046016;28;20272;-73
2021/10/21 13:14:35;;;;;;;6.40;1.30;;;;;;;;;;5048577;28;20180;-73
2021/10/21 13:17:01;;;;;;;6.23;1.53;;;;;;;;;;5049148;28;20224;-73
2021/10/21 13:19:26;;;;;;;9.90;2.50;;;;;;;;;;5053364;28;20290;-73
2021/10/21 13:21:51;;;;;;;4.23;1.23;;;;;;;;;;5071180;28;20633;-73
2021/10/21 13:24:17;;;;;;;5.83;1.47;;;;;;;;;;5052642;28;20181;-73
2021/10/21 13:26:42;;;;;;;5.17;1.10;;;;;;;;;;5053553;28;20201;-73
2021/10/21 13:29:07;;;;;;;6.53;1.43;;;;;;;;;;5055241;28;20217;-74
2021/10/21 13:31:33;;;;;;;8.60;1.40;;;;;;;;;;5065836;28;20177;-73
2021/10/21 13:33:58;;;;;;;5.87;2.03;;;;;;;;;;5049444;28;20300;-74
2021/10/21 13:36:23;;;;;;;10.57;3.37;;;;;;;;;;5052781;28;20205;-73
2021/10/21 13:38:51;;;;;;;3.83;1.40;;;;;;;;;;5049583;28;20192;-73
2021/10/21 13:41:16;;;;;;;6.90;1.20;;;;;;;;;;5047774;28;20181;-73
2021/10/21 13:43:41;;;;;;;5.17;1.80;;;;;;;;;;5051325;28;20185;-73
2021/10/21 13:46:06;;;;;;;4.88;1.23;;;;;;;;;;5061045;28;20209;-73
2021/10/21 13:48:31;;;;;;;8.63;1.40;;;;;;;;;;5058999;28;20784;-73
2021/10/21 13:50:57;;;;;;;6.63;1.50;;;;;;;;;;5059447;28;20201;-72
2021/10/21 13:53:22;;;;;;;5.05;1.40;;;;;;;;;;5060073;28;20177;-72
2021/10/21 13:55:47;;;;;;;10.52;2.28;;;;;;;;;;5061564;28;20656;-73
2021/10/21 13:58:14;;;;;;;11.00;2.03;;;;;;;;;;5064429;28;20219;-72
2021/10/21 14:00:39;;;;;;;13.83;2.77;;;;;;;;;;5058827;28;20251;-73
2021/10/21 14:03:04;;;;;;;14.23;2.33;;;;;;;;;;5056681;28;20268;-73
2021/10/21 14:05:30;;;;;;;13.23;2.20;;;;;;;;;;5061769;22;20236;-75
2021/10/21 14:07:56;;;;;;;7.60;1.80;;;;;;;;;;5031550;28;20221;-75
2021/10/21 14:10:22;;;;;;;16.00;3.97;;;;;;;;;;5011838;28;20184;-75
2021/10/21 14:12:47;;;;;;;10.50;2.23;;;;;;;;;;5032172;28;20267;-74
2021/10/21 14:15:12;;;;;;;15.43;3.23;;;;;;;;;;5022012;28;20200;-75
2021/10/21 14:17:38;;;;;;;10.50;3.63;;;;;;;;;;5013051;28;20175;-74
2021/10/21 14:20:03;;;;;;;11.13;2.33;;;;;;;;;;4989532;28;20189;-75
2021/10/21 14:22:29;;;;;;;10.37;2.80;;;;;;;;;;5010788;28;20186;-74
2021/10/21 14:24:54;;;;;;;12.13;3.17;;;;;;;;;;5010018;28;20276;-74
2021/10/21 14:27:19;;;;;;;15.00;2.70;;;;;;;;;;5010290;28;20202;-74
2021/10/21 14:29:48;;;;;;;13.70;2.30;;;;;;;;;;5011560;28;20178;-74
2021/10/21 14:32:13;;;;;;;13.33;2.90;;;;;;;;;;5008388;28;20175;-74
2021/10/21 14:34:38;;;;;;;12.63;3.03;;;;;;;;;;4990931;28;20283;-74
2021/10/21 14:37:04;;;;;;;19.07;5.33;;;;;;;;;;5011074;28;20193;-74